createdAt,value
2023-09-26T00:01:35.619Z,3.50
2023-09-26T00:04:03.789Z,6.68
2023-09-26T00:06:31.992Z,1.00
2023-09-26T00:08:59.917Z,1.50
2023-09-26T00:11:28.713Z,0.85
2023-09-26T00:13:56.494Z,1.40
2023-09-26T00:16:25.766Z,0.60
2023-09-26T00:18:53.681Z,0.63
2023-09-26T00:21:21.532Z,1.38
2023-09-26T00:23:49.439Z,2.40
2023-09-26T00:26:17.310Z,0.85
2023-09-26T00:28:48.097Z,0.75
2023-09-26T00:31:15.889Z,1.65
2023-09-26T00:33:45.083Z,2.65
2023-09-26T00:36:12.824Z,1.23
2023-09-26T00:38:40.626Z,0.75
2023-09-26T00:41:08.412Z,1.55
2023-09-26T00:43:36.768Z,1.30
2023-09-26T00:46:05.305Z,2.17
2023-09-26T00:48:33.646Z,1.25
2023-09-26T00:51:04.005Z,3.00
2023-09-26T00:53:32.006Z,1.10
2023-09-26T00:56:01.408Z,1.67
2023-09-26T00:58:31.146Z,1.45
2023-09-26T01:00:59.965Z,2.67
2023-09-26T01:03:28.072Z,0.57
2023-09-26T01:05:57.150Z,3.70
2023-09-26T01:08:26.240Z,2.25
2023-09-26T01:10:53.990Z,1.10
2023-09-26T01:13:21.954Z,0.68
2023-09-26T01:15:49.766Z,1.25
2023-09-26T01:18:18.766Z,1.30
2023-09-26T01:20:47.452Z,2.05
2023-09-26T01:23:15.749Z,0.95
2023-09-26T01:25:45.448Z,1.60
2023-09-26T01:28:19.045Z,1.85
2023-09-26T01:30:48.128Z,1.77
2023-09-26T01:33:17.760Z,2.03
2023-09-26T01:35:45.715Z,1.38
2023-09-26T01:38:13.563Z,1.58
2023-09-26T01:40:42.239Z,2.05
2023-09-26T01:43:11.403Z,2.15
2023-09-26T01:45:39.371Z,0.60
2023-09-26T01:48:07.693Z,0.75
2023-09-26T01:50:36.175Z,0.65
2023-09-26T01:53:05.561Z,1.85
2023-09-26T01:55:33.380Z,0.57
2023-09-26T01:58:01.127Z,0.82
2023-09-26T02:00:30.820Z,1.98
2023-09-26T02:02:59.497Z,3.20
2023-09-26T02:05:27.298Z,0.50
2023-09-26T02:07:56.015Z,1.05
2023-09-26T02:10:23.818Z,1.25
2023-09-26T02:12:52.326Z,0.63
2023-09-26T02:15:20.524Z,0.90
2023-09-26T02:17:49.723Z,1.70
2023-09-26T02:20:18.692Z,1.25
2023-09-26T02:22:47.188Z,0.90
2023-09-26T02:25:15.558Z,1.48
2023-09-26T02:27:44.761Z,0.98
2023-09-26T02:30:13.263Z,1.20
2023-09-26T02:32:41.119Z,3.35
2023-09-26T02:35:11.614Z,1.30
2023-09-26T02:37:39.830Z,0.80
2023-09-26T02:40:11.248Z,1.20
2023-09-26T02:42:41.618Z,2.83
2023-09-26T02:45:09.771Z,3.67
2023-09-26T02:47:37.837Z,1.42
2023-09-26T02:50:05.901Z,1.27
2023-09-26T02:52:34.985Z,1.67
2023-09-26T02:55:03.085Z,1.38
2023-09-26T02:57:31.259Z,2.10
2023-09-26T02:59:58.992Z,1.63
2023-09-26T03:02:26.730Z,1.60
2023-09-26T03:04:54.517Z,1.52
2023-09-26T03:07:22.266Z,1.30
2023-09-26T03:09:51.374Z,1.45
2023-09-26T03:12:19.113Z,1.83
2023-09-26T03:14:46.810Z,1.73
2023-09-26T03:17:14.534Z,2.55
2023-09-26T03:19:42.226Z,1.27
2023-09-26T03:22:10.010Z,1.35
2023-09-26T03:24:37.815Z,1.15
2023-09-26T03:27:06.925Z,0.75
2023-09-26T03:29:34.776Z,0.50
2023-09-26T03:32:02.573Z,0.70
2023-09-26T03:34:30.432Z,0.75
2023-09-26T03:36:58.236Z,2.15
2023-09-26T03:39:26.537Z,1.27
2023-09-26T03:41:54.290Z,1.33
2023-09-26T03:44:23.474Z,2.00
2023-09-26T03:46:51.257Z,0.88
2023-09-26T03:49:19.093Z,1.27
2023-09-26T03:51:46.873Z,2.15
2023-09-26T03:54:14.582Z,2.42
2023-09-26T03:56:42.306Z,1.50
2023-09-26T03:59:10.033Z,1.23
2023-09-26T04:01:39.259Z,0.68
2023-09-26T04:04:08.516Z,1.25
2023-09-26T04:06:36.898Z,0.90
2023-09-26T04:09:04.694Z,1.02
2023-09-26T04:11:32.416Z,0.70
2023-09-26T04:14:00.250Z,0.85
2023-09-26T04:16:28.554Z,1.35
2023-09-26T04:18:57.807Z,2.40
2023-09-26T04:21:25.618Z,1.60
2023-09-26T04:23:53.597Z,3.10
2023-09-26T04:26:21.508Z,1.98
2023-09-26T04:28:49.467Z,0.95
2023-09-26T04:31:18.455Z,3.05
2023-09-26T04:33:46.987Z,0.85
2023-09-26T04:36:16.172Z,1.08
2023-09-26T04:38:43.890Z,1.30
2023-09-26T04:41:11.611Z,1.85
2023-09-26T04:43:39.399Z,1.08
2023-09-26T04:46:12.027Z,1.23
2023-09-26T04:48:39.861Z,0.82
2023-09-26T04:51:08.649Z,2.17
2023-09-26T04:53:37.728Z,0.57
2023-09-26T04:56:05.889Z,1.40
2023-09-26T04:58:33.679Z,1.60
2023-09-26T05:01:02.432Z,1.15
2023-09-26T05:03:30.411Z,1.60
2023-09-26T05:05:58.137Z,3.75
2023-09-26T05:08:25.888Z,1.90
2023-09-26T05:10:54.959Z,1.58
2023-09-26T05:13:22.759Z,1.20
2023-09-26T05:15:50.526Z,1.33
2023-09-26T05:18:18.308Z,0.68
2023-09-26T05:20:46.060Z,1.05
2023-09-26T05:23:13.773Z,1.27
2023-09-26T05:25:41.527Z,3.90
2023-09-26T05:28:10.633Z,2.78
2023-09-26T05:30:38.545Z,4.47
2023-09-26T05:33:06.622Z,3.13
2023-09-26T05:35:34.387Z,4.45
2023-09-26T05:38:02.097Z,3.22
2023-09-26T05:40:29.845Z,4.28
2023-09-26T05:42:57.585Z,4.00
2023-09-26T05:45:26.694Z,3.17
2023-09-26T05:47:54.359Z,5.80
2023-09-26T05:50:22.050Z,5.13
2023-09-26T05:52:49.689Z,4.38
2023-09-26T05:55:17.437Z,6.95
2023-09-26T05:57:45.115Z,5.78
2023-09-26T06:00:14.579Z,6.63
2023-09-26T06:02:43.858Z,7.57
2023-09-26T06:05:12.849Z,5.13
2023-09-26T06:07:40.772Z,5.38
2023-09-26T06:10:11.911Z,5.72
2023-09-26T06:12:39.833Z,5.68
2023-09-26T06:15:08.540Z,6.07
2023-09-26T06:17:36.288Z,8.18
2023-09-26T06:20:08.896Z,9.10
2023-09-26T06:22:36.637Z,5.38
2023-09-26T06:25:05.668Z,5.97
2023-09-26T06:27:34.908Z,8.18
2023-09-26T06:30:02.545Z,6.78
2023-09-26T06:32:30.549Z,4.65
2023-09-26T06:34:59.483Z,5.13
2023-09-26T06:37:28.867Z,5.15
2023-09-26T06:39:59.646Z,5.25
2023-09-26T06:42:27.930Z,7.30
2023-09-26T06:44:56.112Z,5.35
2023-09-26T06:47:24.030Z,3.38
2023-09-26T06:49:53.382Z,7.03
2023-09-26T06:52:21.299Z,4.30
2023-09-26T06:54:50.446Z,5.38
2023-09-26T06:57:21.303Z,5.35
2023-09-26T06:59:52.534Z,5.95
2023-09-26T07:02:21.180Z,4.30
2023-09-26T07:04:53.488Z,11.00
2023-09-26T07:07:21.954Z,6.72
2023-09-26T07:09:51.107Z,5.90
2023-09-26T07:12:18.956Z,5.82
2023-09-26T07:14:46.681Z,5.53
2023-09-26T07:17:14.440Z,4.53
2023-09-26T07:19:42.119Z,4.38
2023-09-26T07:22:09.878Z,4.18
2023-09-26T07:24:49.469Z,3.22
2023-09-26T07:27:19.761Z,3.92
2023-09-26T07:29:48.215Z,2.30
2023-09-26T07:32:16.695Z,5.22
2023-09-26T07:34:44.595Z,2.20
2023-09-26T07:37:13.055Z,1.30
2023-09-26T07:39:41.364Z,1.35
2023-09-26T07:42:09.152Z,1.60
2023-09-26T07:44:38.243Z,2.72
2023-09-26T07:47:06.108Z,1.48
2023-09-26T07:49:33.979Z,2.67
2023-09-26T07:52:01.828Z,1.30
2023-09-26T07:54:29.600Z,0.95
2023-09-26T07:56:57.399Z,1.77
2023-09-26T07:59:25.157Z,1.15
2023-09-26T08:01:54.249Z,1.13
2023-09-26T08:04:22.054Z,1.75
2023-09-26T08:06:49.872Z,2.38
2023-09-26T08:09:17.702Z,1.15
2023-09-26T08:11:45.446Z,2.55
2023-09-26T08:14:13.168Z,1.55
2023-09-26T08:16:40.955Z,2.03
2023-09-26T08:19:10.167Z,4.13
2023-09-26T08:21:38.029Z,4.00
2023-09-26T08:24:06.007Z,1.08
2023-09-26T08:26:33.740Z,1.70
2023-09-26T08:29:01.489Z,0.80
2023-09-26T08:31:29.299Z,6.85
2023-09-26T08:33:57.102Z,0.70
2023-09-26T08:36:26.221Z,3.70
2023-09-26T08:38:53.953Z,1.60
2023-09-26T08:41:22.107Z,0.98
2023-09-26T08:43:50.048Z,1.58
2023-09-26T08:46:19.007Z,2.50
2023-09-26T08:48:47.297Z,1.98
2023-09-26T08:51:15.122Z,1.08
2023-09-26T08:53:44.262Z,0.80
2023-09-26T08:56:11.996Z,2.05
2023-09-26T08:58:41.532Z,1.63
2023-09-26T09:01:09.352Z,1.35
2023-09-26T09:03:37.209Z,1.13
2023-09-26T09:06:04.950Z,1.05
2023-09-26T09:08:32.736Z,1.25
2023-09-26T09:11:01.833Z,0.70
2023-09-26T09:13:31.124Z,0.80
2023-09-26T09:16:12.200Z,2.65
2023-09-26T09:18:40.950Z,2.47
2023-09-26T09:21:25.881Z,0.77
2023-09-26T09:23:54.337Z,1.23
2023-09-26T09:26:23.681Z,2.10
2023-09-26T09:28:52.837Z,1.35
2023-09-26T09:31:20.959Z,1.10
2023-09-26T09:33:49.402Z,0.60
2023-09-26T09:36:17.184Z,0.75
2023-09-26T09:38:44.930Z,0.80
2023-09-26T09:41:12.677Z,0.40
2023-09-26T09:43:41.835Z,0.75
2023-09-26T09:46:11.986Z,1.77
2023-09-26T09:48:44.074Z,1.92
2023-09-26T09:51:13.593Z,0.68
2023-09-26T09:53:43.713Z,2.67
2023-09-26T09:56:13.796Z,2.55
2023-09-26T09:58:46.059Z,1.17
2023-09-26T10:01:14.750Z,1.70
2023-09-26T10:03:43.584Z,2.10
2023-09-26T10:06:11.847Z,2.30
2023-09-26T10:08:40.402Z,0.63
2023-09-26T10:11:09.719Z,0.73
2023-09-26T10:13:37.700Z,1.60
2023-09-26T10:16:09.065Z,2.97
2023-09-26T10:18:40.456Z,0.90
2023-09-26T10:21:21.584Z,1.35
2023-09-26T10:24:08.168Z,0.40
2023-09-26T10:26:36.043Z,0.63
2023-09-26T10:29:06.740Z,1.15
2023-09-26T10:31:35.991Z,0.47
2023-09-26T10:34:04.003Z,1.05
2023-09-26T10:36:30.781Z,1.52
2023-09-26T10:39:02.071Z,2.10
2023-09-26T10:41:31.332Z,1.25
2023-09-26T10:44:00.583Z,0.50
2023-09-26T10:46:30.351Z,1.60
2023-09-26T10:48:59.938Z,1.02
2023-09-26T10:51:28.054Z,1.73
2023-09-26T10:53:55.831Z,1.45
2023-09-26T10:56:23.636Z,0.63
2023-09-26T10:58:54.621Z,0.88
2023-09-26T11:01:22.544Z,0.88
2023-09-26T11:03:50.477Z,0.75
2023-09-26T11:06:22.174Z,1.20
2023-09-26T11:08:50.127Z,0.70
2023-09-26T11:11:19.916Z,1.30
2023-09-26T11:13:47.803Z,2.67
2023-09-26T11:16:15.617Z,2.05
2023-09-26T11:18:43.489Z,7.85
2023-09-26T11:23:46.550Z,1.85
2023-09-26T11:26:14.315Z,1.20
2023-09-26T11:28:42.203Z,0.40
2023-09-26T11:31:11.070Z,0.98
2023-09-26T11:33:38.883Z,0.60
2023-09-26T11:36:06.715Z,1.75
2023-09-26T11:38:35.497Z,1.42
2023-09-26T11:41:04.802Z,1.17
2023-09-26T11:43:40.471Z,0.88
2023-09-26T11:46:09.978Z,0.55
2023-09-26T11:48:38.033Z,1.27
2023-09-26T11:51:05.994Z,1.00
2023-09-26T11:53:34.149Z,1.10
2023-09-26T11:56:01.989Z,1.58
2023-09-26T11:58:31.062Z,3.50
2023-09-26T12:00:59.025Z,1.67
2023-09-26T12:03:26.843Z,0.93
2023-09-26T12:05:54.565Z,3.83
2023-09-26T12:08:22.317Z,1.20
2023-09-26T12:10:50.493Z,1.13
2023-09-26T12:13:18.247Z,3.15
2023-09-26T12:15:47.367Z,0.43
2023-09-26T12:18:15.954Z,4.22
2023-09-26T12:20:43.782Z,2.30
2023-09-26T12:23:11.481Z,1.20
2023-09-26T12:25:39.292Z,0.90
2023-09-26T12:28:07.453Z,2.00
2023-09-26T12:30:35.817Z,0.70
2023-09-26T12:33:05.017Z,1.60
2023-09-26T12:35:32.739Z,1.23
2023-09-26T12:38:01.179Z,0.70
2023-09-26T12:40:28.928Z,0.70
2023-09-26T12:42:56.671Z,1.50
2023-09-26T12:45:24.421Z,0.88
2023-09-26T12:47:52.306Z,1.40
2023-09-26T12:50:21.576Z,0.52
2023-09-26T12:52:49.576Z,0.95
2023-09-26T12:55:17.883Z,0.65
2023-09-26T12:57:45.655Z,1.58
2023-09-26T13:00:13.926Z,1.88
2023-09-26T13:02:42.213Z,2.13
2023-09-26T13:05:10.655Z,2.80
2023-09-26T13:07:39.947Z,2.92
2023-09-26T13:10:08.436Z,1.85
2023-09-26T13:12:37.272Z,1.02
2023-09-26T13:15:05.406Z,0.60
2023-09-26T13:17:33.481Z,1.88
2023-09-26T13:20:01.327Z,0.60
2023-09-26T13:22:29.178Z,1.25
2023-09-26T13:24:58.263Z,0.85
2023-09-26T13:27:25.981Z,0.65
2023-09-26T13:29:53.678Z,0.60
2023-09-26T13:32:21.578Z,1.85
2023-09-26T13:34:49.420Z,1.75
2023-09-26T13:37:17.130Z,0.25
2023-09-26T13:39:44.948Z,1.75
2023-09-26T13:42:14.060Z,0.40
2023-09-26T13:44:41.802Z,1.08
2023-09-26T13:49:37.272Z,1.25
2023-09-26T13:52:05.105Z,0.65
2023-09-26T13:54:32.851Z,1.65
2023-09-26T13:57:00.572Z,0.65
2023-09-26T13:59:29.664Z,2.15
2023-09-26T14:01:57.398Z,1.50
2023-09-26T14:04:58.331Z,0.65
2023-09-26T14:07:29.336Z,0.77
2023-09-26T14:09:57.051Z,0.55
2023-09-26T14:12:24.779Z,2.38
2023-09-26T14:14:53.965Z,1.83
2023-09-26T14:17:21.780Z,1.45
2023-09-26T14:19:49.580Z,5.85
2023-09-26T14:22:17.301Z,0.40
2023-09-26T14:24:51.769Z,1.30
2023-09-26T14:27:20.148Z,1.90
2023-09-26T14:29:56.800Z,0.77
2023-09-26T14:32:25.956Z,1.10
2023-09-26T14:34:53.862Z,0.93
2023-09-26T14:37:21.625Z,0.77
2023-09-26T14:39:49.743Z,1.23
2023-09-26T14:42:17.427Z,0.43
2023-09-26T14:44:45.274Z,1.02
2023-09-26T14:47:13.053Z,1.08
2023-09-26T14:49:42.356Z,1.00
2023-09-26T14:52:10.073Z,0.85
2023-09-26T14:54:37.768Z,0.55
2023-09-26T14:57:06.302Z,2.10
2023-09-26T14:59:33.990Z,0.98
2023-09-26T15:02:01.778Z,1.50
2023-09-26T15:04:29.532Z,0.38
2023-09-26T15:06:58.648Z,0.85
2023-09-26T15:09:26.375Z,2.45
2023-09-26T15:11:54.034Z,0.32
2023-09-26T15:14:21.739Z,0.77
2023-09-26T15:16:49.574Z,0.65
2023-09-26T15:19:17.434Z,0.55
2023-09-26T15:21:45.179Z,0.50
2023-09-26T15:24:14.296Z,0.70
2023-09-26T15:26:42.169Z,1.30
2023-09-26T15:29:10.115Z,0.85
2023-09-26T15:31:38.085Z,0.70
2023-09-26T15:34:05.909Z,0.63
2023-09-26T15:36:33.715Z,0.22
2023-09-26T15:39:01.451Z,0.40
2023-09-26T15:41:30.705Z,0.20
2023-09-26T15:43:58.559Z,1.10
2023-09-26T15:46:26.333Z,0.98
2023-09-26T15:48:54.297Z,0.50
2023-09-26T15:51:22.115Z,0.98
2023-09-26T15:53:50.092Z,0.40
2023-09-26T15:56:18.158Z,2.25
2023-09-26T15:58:48.074Z,0.55
2023-09-26T16:01:15.965Z,1.65
2023-09-26T16:03:45.891Z,1.00
2023-09-26T16:06:13.946Z,0.30
2023-09-26T16:08:46.318Z,1.90
2023-09-26T16:11:14.333Z,2.88
2023-09-26T16:13:44.045Z,0.77
2023-09-26T16:16:14.393Z,0.65
2023-09-26T16:18:42.169Z,1.10
2023-09-26T16:21:09.906Z,0.93
2023-09-26T16:23:37.669Z,0.60
2023-09-26T16:26:05.482Z,1.00
2023-09-26T16:28:33.220Z,0.80
2023-09-26T16:31:00.953Z,1.27
2023-09-26T16:33:31.035Z,1.90
2023-09-26T16:36:00.635Z,1.35
2023-09-26T16:38:32.495Z,1.67
2023-09-26T16:41:00.305Z,0.90
2023-09-26T16:43:28.057Z,0.60
2023-09-26T16:45:55.808Z,1.08
2023-09-26T16:48:23.519Z,1.17
2023-09-26T16:50:52.716Z,0.20
2023-09-26T16:53:20.400Z,0.93
2023-09-26T16:55:48.159Z,0.55
2023-09-26T16:58:17.411Z,0.30
2023-09-26T17:00:45.127Z,0.40
2023-09-26T17:03:12.891Z,1.02
2023-09-26T17:05:40.787Z,0.52
2023-09-26T17:08:10.023Z,0.50
2023-09-26T17:10:37.843Z,1.08
2023-09-26T17:13:05.806Z,0.85
2023-09-26T17:15:33.542Z,1.55
2023-09-26T17:18:01.374Z,0.45
2023-09-26T17:20:29.094Z,1.13
2023-09-26T17:22:56.848Z,1.23
2023-09-26T17:25:26.068Z,0.25
2023-09-26T17:27:53.850Z,0.60
2023-09-26T17:30:21.661Z,0.35
2023-09-26T17:32:49.515Z,0.40
2023-09-26T17:35:17.425Z,0.25
2023-09-26T17:37:45.195Z,0.30
2023-09-26T17:40:13.398Z,0.40
2023-09-26T17:42:42.470Z,0.70
2023-09-26T17:45:10.638Z,3.10
2023-09-26T17:47:38.410Z,5.32
2023-09-26T17:50:06.709Z,0.77
2023-09-26T17:52:34.526Z,0.30
2023-09-26T17:55:02.779Z,0.75
2023-09-26T17:57:30.553Z,0.43
2023-09-26T17:59:59.783Z,0.55
2023-09-26T18:02:27.590Z,0.43
2023-09-26T18:04:55.911Z,0.20
2023-09-26T18:07:23.781Z,1.45
2023-09-26T18:09:51.544Z,0.70
2023-09-26T18:12:19.241Z,0.35
2023-09-26T18:14:47.016Z,0.80
2023-09-26T18:17:18.180Z,0.73
2023-09-26T18:19:46.535Z,1.65
2023-09-26T18:22:14.277Z,0.60
2023-09-26T18:24:43.065Z,1.45
2023-09-26T18:27:11.590Z,0.80
2023-09-26T18:29:39.383Z,0.95
2023-09-26T18:32:07.144Z,0.40
2023-09-26T18:34:36.343Z,0.47
2023-09-26T18:37:04.064Z,0.52
2023-09-26T18:39:31.778Z,0.32
2023-09-26T18:41:59.531Z,0.30
2023-09-26T18:44:27.236Z,1.20
2023-09-26T18:46:55.038Z,0.85
2023-09-26T18:49:22.834Z,0.50
2023-09-26T18:51:53.353Z,0.52
2023-09-26T18:54:21.327Z,0.40
2023-09-26T18:56:49.027Z,0.10
2023-09-26T18:59:16.809Z,0.63
2023-09-26T19:01:44.691Z,1.65
2023-09-26T19:04:13.793Z,0.82
2023-09-26T19:06:41.716Z,2.10
2023-09-26T19:09:11.020Z,0.30
2023-09-26T19:11:43.335Z,1.55
2023-09-26T19:14:11.275Z,0.22
2023-09-26T19:16:40.157Z,1.15
2023-09-26T19:19:08.274Z,0.88
2023-09-26T19:21:37.791Z,2.17
2023-09-26T19:24:05.832Z,0.30
2023-09-26T19:26:36.317Z,1.02
2023-09-26T19:29:04.137Z,1.13
2023-09-26T19:31:31.934Z,0.40
2023-09-26T19:33:59.736Z,2.08
2023-09-26T19:36:27.416Z,1.15
2023-09-26T19:38:55.801Z,0.30
2023-09-26T19:41:24.381Z,1.65
2023-09-26T19:43:53.743Z,0.65
2023-09-26T19:46:21.499Z,0.80
2023-09-26T19:48:51.216Z,0.30
2023-09-26T19:51:20.388Z,0.75
2023-09-26T19:53:48.380Z,0.40
2023-09-26T19:56:16.204Z,1.20
2023-09-26T19:58:43.941Z,0.95
2023-09-26T20:01:13.084Z,1.02
2023-09-26T20:03:40.897Z,1.23
2023-09-26T20:06:08.671Z,1.23
2023-09-26T20:08:36.404Z,1.90
2023-09-26T20:11:04.259Z,1.58
2023-09-26T20:13:32.183Z,0.35
2023-09-26T20:16:00.638Z,2.17
2023-09-26T20:18:29.946Z,0.55
2023-09-26T20:20:57.659Z,0.50
2023-09-26T20:23:25.487Z,0.38
2023-09-26T20:25:58.894Z,1.00
2023-09-26T20:28:26.715Z,2.55
2023-09-26T20:30:54.538Z,0.60
2023-09-26T20:33:22.446Z,0.98
2023-09-26T20:35:57.937Z,1.10
2023-09-26T20:38:25.720Z,0.57
2023-09-26T20:41:02.699Z,0.40
2023-09-26T20:43:30.540Z,0.80
2023-09-26T20:45:58.298Z,0.40
2023-09-26T20:48:27.152Z,0.82
2023-09-26T20:50:55.103Z,1.10
2023-09-26T20:53:24.247Z,5.80
2023-09-26T20:55:52.072Z,0.57
2023-09-26T20:58:19.849Z,0.65
2023-09-26T21:00:47.615Z,0.20
2023-09-26T21:03:16.766Z,0.75
2023-09-26T21:05:45.254Z,0.75
2023-09-26T21:08:13.117Z,0.95
2023-09-26T21:10:42.261Z,3.53
2023-09-26T21:13:09.980Z,1.65
2023-09-26T21:15:37.744Z,1.85
2023-09-26T21:18:05.666Z,0.70
2023-09-26T21:20:33.542Z,0.28
2023-09-26T21:23:01.287Z,0.73
2023-09-26T21:25:29.157Z,0.50
2023-09-26T21:27:58.490Z,0.43
2023-09-26T21:30:26.201Z,1.08
2023-09-26T21:32:54.018Z,1.65
2023-09-26T21:35:21.788Z,1.05
2023-09-26T21:37:50.532Z,0.95
2023-09-26T21:40:18.309Z,1.13
2023-09-26T21:42:46.000Z,0.65
2023-09-26T21:45:15.119Z,0.80
2023-09-26T21:47:43.039Z,0.50
2023-09-26T21:50:11.354Z,1.30
2023-09-26T21:52:39.095Z,0.60
2023-09-26T21:55:07.450Z,0.80
2023-09-26T21:57:35.199Z,0.75
2023-09-26T22:00:03.542Z,0.95
2023-09-26T22:02:41.817Z,0.77
2023-09-26T22:05:09.990Z,3.38
2023-09-26T22:07:37.693Z,2.88
2023-09-26T22:10:05.883Z,0.90
2023-09-26T22:12:33.966Z,0.75
2023-09-26T22:15:01.832Z,0.82
2023-09-26T22:17:29.637Z,0.63
2023-09-26T22:19:58.876Z,0.70
2023-09-26T22:22:26.668Z,0.82
2023-09-26T22:24:54.401Z,0.47
2023-09-26T22:27:22.965Z,1.15
2023-09-26T22:29:50.764Z,3.13
2023-09-26T22:32:18.580Z,1.23
2023-09-26T22:34:46.713Z,0.73
2023-09-26T22:37:15.906Z,0.75
2023-09-26T22:39:43.689Z,0.85
2023-09-26T22:42:11.396Z,0.70
2023-09-26T22:44:39.173Z,0.70
2023-09-26T22:47:07.152Z,0.75
2023-09-26T22:49:35.052Z,1.02
2023-09-26T22:52:03.164Z,0.50
2023-09-26T22:54:33.223Z,0.65
2023-09-26T22:57:01.171Z,0.80
2023-09-26T22:59:29.031Z,1.20
2023-09-26T23:01:56.782Z,1.08
2023-09-26T23:04:25.073Z,0.75
2023-09-26T23:06:52.841Z,1.02
2023-09-26T23:09:20.579Z,3.28
2023-09-26T23:11:51.210Z,0.93
2023-09-26T23:14:19.011Z,1.50
2023-09-26T23:16:47.492Z,0.82
2023-09-26T23:19:15.304Z,0.93
2023-09-26T23:21:43.029Z,1.17
2023-09-26T23:24:10.905Z,5.30
2023-09-26T23:26:39.221Z,0.85
2023-09-26T23:29:08.289Z,0.22
2023-09-26T23:31:37.498Z,2.30
2023-09-26T23:34:05.622Z,0.43
2023-09-26T23:36:33.400Z,2.30
2023-09-26T23:39:01.218Z,9.73
2023-09-26T23:41:29.423Z,2.72
2023-09-26T23:43:57.214Z,0.50
2023-09-26T23:46:26.389Z,0.57
2023-09-26T23:48:55.295Z,0.70
2023-09-26T23:51:23.226Z,0.70
2023-09-26T23:53:50.947Z,0.47
2023-09-26T23:56:18.710Z,0.57
2023-09-26T23:58:46.482Z,1.35
